createdAt,value
2022-09-27T00:00:11.572Z,29.77
2022-09-27T00:02:41.259Z,28.75
2022-09-27T00:05:08.567Z,29.50
2022-09-27T00:07:35.211Z,13.45
2022-09-27T00:10:02.427Z,5.25
2022-09-27T00:12:29.110Z,13.52
2022-09-27T00:14:55.801Z,16.10
2022-09-27T00:17:23.490Z,16.73
2022-09-27T00:22:16.841Z,13.77
2022-09-27T00:24:43.515Z,18.88
2022-09-27T00:27:10.224Z,16.77
2022-09-27T00:29:37.686Z,11.10
2022-09-27T00:32:04.457Z,14.52
2022-09-27T00:34:31.111Z,22.27
2022-09-27T00:36:58.209Z,14.13
2022-09-27T00:39:24.919Z,20.77
2022-09-27T00:41:51.554Z,15.02
2022-09-27T00:44:33.420Z,33.58
2022-09-27T00:47:52.467Z,17.52
2022-09-27T00:50:29.667Z,16.13
2022-09-27T00:53:03.563Z,19.00
2022-09-27T00:55:36.047Z,10.20
2022-09-27T00:58:05.030Z,12.05
2022-09-27T01:00:31.874Z,9.50
2022-09-27T01:03:00.194Z,10.93
2022-09-27T01:05:29.526Z,11.45
2022-09-27T01:07:56.681Z,11.55
2022-09-27T01:10:25.380Z,15.35
2022-09-27T01:13:19.904Z,10.65
2022-09-27T01:16:21.756Z,10.52
2022-09-27T01:19:20.033Z,10.80
2022-09-27T01:22:07.810Z,22.10
2022-09-27T01:24:55.694Z,14.88
2022-09-27T01:27:50.076Z,13.65
2022-09-27T01:30:31.916Z,6.70
2022-09-27T01:33:11.307Z,18.33
2022-09-27T01:35:52.942Z,14.38
2022-09-27T01:38:25.257Z,13.65
2022-09-27T01:41:22.978Z,8.32
2022-09-27T01:44:33.203Z,18.15
2022-09-27T01:47:17.658Z,3.97
2022-09-27T01:49:52.727Z,11.68
2022-09-27T01:52:23.556Z,21.92
2022-09-27T01:54:56.872Z,15.43
2022-09-27T01:57:38.568Z,15.30
2022-09-27T02:00:11.610Z,11.82
2022-09-27T02:02:57.098Z,9.20
2022-09-27T02:06:16.177Z,13.75
2022-09-27T02:09:30.839Z,17.20
2022-09-27T02:12:18.926Z,6.40
2022-09-27T02:14:56.083Z,7.88
2022-09-27T02:17:59.443Z,14.52
2022-09-27T02:20:57.955Z,10.00
2022-09-27T02:23:36.258Z,4.80
2022-09-27T02:26:22.745Z,6.57
2022-09-27T02:29:11.311Z,10.40
2022-09-27T02:31:46.154Z,5.15
2022-09-27T02:34:21.268Z,10.57
2022-09-27T02:36:48.485Z,8.07
2022-09-27T02:39:17.389Z,1.55
2022-09-27T02:41:44.419Z,7.97
2022-09-27T02:44:13.378Z,7.72
2022-09-27T02:47:07.036Z,11.10
2022-09-27T02:49:59.623Z,2.25
2022-09-27T02:53:38.000Z,11.98
2022-09-27T02:56:29.221Z,8.48
2022-09-27T02:59:43.598Z,3.42
2022-09-27T03:02:51.354Z,13.35
2022-09-27T03:08:17.114Z,4.82
2022-09-27T03:10:43.887Z,10.18
2022-09-27T03:13:11.761Z,6.95
2022-09-27T03:15:38.610Z,4.95
2022-09-27T03:18:05.562Z,1.43
2022-09-27T03:20:58.564Z,11.73
2022-09-27T03:23:26.090Z,5.07
2022-09-27T03:25:53.655Z,8.18
2022-09-27T03:28:20.460Z,16.55
2022-09-27T03:30:47.924Z,1.05
2022-09-27T03:33:33.516Z,13.40
2022-09-27T03:36:05.980Z,9.02
2022-09-27T03:38:32.914Z,2.97
2022-09-27T03:41:00.081Z,4.32
2022-09-27T03:43:27.047Z,0.90
2022-09-27T03:45:58.031Z,5.63
2022-09-27T03:48:28.115Z,3.90
2022-09-27T03:50:55.088Z,4.20
2022-09-27T03:53:21.874Z,7.07
2022-09-27T03:55:48.877Z,14.63
2022-09-27T03:58:16.122Z,17.85
2022-09-27T04:00:43.975Z,9.45
2022-09-27T04:03:12.090Z,4.88
2022-09-27T04:05:57.824Z,4.95
2022-09-27T04:08:34.585Z,6.32
2022-09-27T04:11:01.313Z,15.85
2022-09-27T04:13:28.596Z,5.57
2022-09-27T04:15:56.495Z,14.93
2022-09-27T04:18:43.715Z,6.20
2022-09-27T04:21:42.655Z,9.40
2022-09-27T04:24:12.163Z,10.10
2022-09-27T04:26:43.373Z,11.32
2022-09-27T04:29:13.345Z,6.13
2022-09-27T04:31:49.752Z,7.53
2022-09-27T04:35:04.505Z,17.00
2022-09-27T04:37:31.319Z,5.75
2022-09-27T04:40:01.960Z,16.58
2022-09-27T04:42:29.973Z,5.20
2022-09-27T04:44:56.702Z,10.33
2022-09-27T04:47:23.491Z,14.60
2022-09-27T04:49:50.252Z,10.57
2022-09-27T04:52:17.255Z,13.95
2022-09-27T04:54:43.947Z,9.30
2022-09-27T04:57:12.740Z,9.00
2022-09-27T04:59:42.476Z,6.45
2022-09-27T05:02:09.704Z,6.25
2022-09-27T05:05:03.844Z,22.40
2022-09-27T05:07:37.246Z,7.70
2022-09-27T05:10:09.700Z,8.43
2022-09-27T05:12:36.733Z,8.57
2022-09-27T05:15:04.634Z,2.08
2022-09-27T05:17:45.166Z,7.47
2022-09-27T05:20:30.682Z,3.22
2022-09-27T05:23:20.436Z,5.85
2022-09-27T05:25:47.242Z,22.58
2022-09-27T05:28:13.915Z,6.38
2022-09-27T05:30:40.844Z,10.17
2022-09-27T05:33:12.808Z,14.73
2022-09-27T05:36:05.558Z,5.22
2022-09-27T05:38:32.341Z,15.52
2022-09-27T05:43:28.275Z,12.30
2022-09-27T05:45:56.770Z,19.55
2022-09-27T05:48:23.566Z,17.30
2022-09-27T05:51:01.276Z,15.30
2022-09-27T05:53:27.989Z,9.30
2022-09-27T05:55:54.777Z,8.43
2022-09-27T05:58:29.760Z,13.63
2022-09-27T06:01:10.415Z,18.00
2022-09-27T06:04:04.671Z,15.95
2022-09-27T06:06:55.413Z,20.80
2022-09-27T06:09:22.281Z,16.13
2022-09-27T06:11:49.233Z,18.25
2022-09-27T06:14:17.263Z,19.60
2022-09-27T06:16:55.920Z,19.45
2022-09-27T06:19:26.347Z,13.30
2022-09-27T06:21:53.163Z,18.43
2022-09-27T06:24:20.068Z,17.33
2022-09-27T06:26:46.777Z,24.47
2022-09-27T06:29:35.165Z,21.58
2022-09-27T06:32:03.769Z,26.83
2022-09-27T06:34:41.643Z,15.70
2022-09-27T06:39:35.097Z,37.03
2022-09-27T06:42:20.486Z,38.13
2022-09-27T06:45:07.795Z,42.00
2022-09-27T06:50:53.636Z,22.30
2022-09-27T06:53:20.310Z,36.10
2022-09-27T06:55:47.297Z,11.10
2022-09-27T06:58:32.668Z,5.07
2022-09-27T07:01:18.118Z,33.67
2022-09-27T07:04:25.207Z,36.60
2022-09-27T07:07:10.630Z,33.85
2022-09-27T07:09:40.803Z,43.25
2022-09-27T07:12:07.829Z,36.95
2022-09-27T07:14:35.138Z,52.90
2022-09-27T07:17:03.045Z,42.55
2022-09-27T07:19:41.669Z,39.83
2022-09-27T07:22:09.541Z,35.17
2022-09-27T07:24:36.637Z,18.88
2022-09-27T07:27:04.601Z,21.77
2022-09-27T07:29:33.241Z,34.53
2022-09-27T07:32:00.265Z,38.55
2022-09-27T07:37:00.365Z,24.67
2022-09-27T07:39:27.844Z,12.55
2022-09-27T07:41:54.488Z,34.58
2022-09-27T07:44:21.826Z,34.65
2022-09-27T07:47:11.679Z,14.55
2022-09-27T07:49:57.315Z,32.78
2022-09-27T07:52:53.550Z,37.78
2022-09-27T07:55:33.415Z,44.17
2022-09-27T07:58:11.926Z,30.45
2022-09-27T08:00:40.733Z,37.45
2022-09-27T08:03:17.609Z,37.08
2022-09-27T08:05:47.561Z,27.13
2022-09-27T08:08:16.541Z,23.60
2022-09-27T08:10:47.495Z,24.15
2022-09-27T08:13:19.922Z,28.38
2022-09-27T08:15:48.566Z,26.85
2022-09-27T08:20:59.949Z,7.35
2022-09-27T08:23:36.802Z,21.92
2022-09-27T08:26:13.784Z,13.13
2022-09-27T08:28:50.383Z,8.57
2022-09-27T08:31:19.997Z,13.65
2022-09-27T08:36:18.287Z,17.63
2022-09-27T08:38:50.540Z,23.17
2022-09-27T08:41:39.221Z,9.15
2022-09-27T08:44:24.838Z,10.73
2022-09-27T08:47:14.657Z,5.20
2022-09-27T08:49:43.626Z,23.10
2022-09-27T08:52:27.487Z,21.30
2022-09-27T08:54:57.211Z,17.25
2022-09-27T08:57:26.009Z,22.05
2022-09-27T09:00:11.706Z,14.00
2022-09-27T09:02:41.267Z,29.00
2022-09-27T09:05:34.973Z,27.08
2022-09-27T09:08:23.793Z,23.08
2022-09-27T09:11:12.994Z,12.27
2022-09-27T09:14:07.449Z,15.68
2022-09-27T09:16:49.306Z,18.55
2022-09-27T09:19:50.648Z,30.33
2022-09-27T09:23:03.402Z,6.55
2022-09-27T09:25:42.281Z,40.50
2022-09-27T09:28:35.720Z,15.40
2022-09-27T09:31:05.983Z,24.27
2022-09-27T09:33:55.068Z,28.05
2022-09-27T09:36:37.707Z,24.75
2022-09-27T09:39:26.211Z,18.00
2022-09-27T09:42:15.959Z,17.45
2022-09-27T09:44:49.303Z,17.90
2022-09-27T09:47:35.902Z,8.07
2022-09-27T09:50:28.983Z,17.13
2022-09-27T09:53:17.636Z,20.60
2022-09-27T09:55:52.273Z,15.38
2022-09-27T09:58:45.171Z,15.80
2022-09-27T10:01:24.821Z,3.05
2022-09-27T10:06:19.547Z,15.77
2022-09-27T10:08:47.490Z,18.35
2022-09-27T10:11:37.380Z,17.98
2022-09-27T10:14:17.455Z,10.30
2022-09-27T10:16:50.485Z,17.38
2022-09-27T10:19:26.239Z,9.68
2022-09-27T10:21:53.968Z,20.70
2022-09-27T10:24:21.028Z,6.80
2022-09-27T10:27:08.320Z,6.50
2022-09-27T10:29:38.881Z,20.63
2022-09-27T10:32:39.347Z,28.95
2022-09-27T10:35:29.308Z,10.15
2022-09-27T10:38:31.803Z,11.88
2022-09-27T10:41:27.586Z,4.20
2022-09-27T10:44:19.508Z,16.42
2022-09-27T10:46:53.504Z,12.68
2022-09-27T10:49:41.160Z,7.60
2022-09-27T10:52:26.798Z,6.35
2022-09-27T10:54:59.467Z,13.63
2022-09-27T10:57:28.784Z,4.60
2022-09-27T11:00:03.896Z,12.10
2022-09-27T11:02:35.437Z,6.50
2022-09-27T11:05:29.682Z,10.85
2022-09-27T11:07:59.303Z,18.35
2022-09-27T11:10:39.302Z,7.63
2022-09-27T11:13:11.685Z,12.48
2022-09-27T11:15:54.105Z,7.63
2022-09-27T11:18:45.248Z,8.00
2022-09-27T11:21:52.896Z,2.75
2022-09-27T11:24:43.229Z,5.00
2022-09-27T11:27:36.083Z,9.23
2022-09-27T11:30:23.316Z,8.80
2022-09-27T11:33:45.535Z,11.50
2022-09-27T11:36:36.008Z,2.80
2022-09-27T11:39:26.928Z,14.60
2022-09-27T11:42:00.768Z,2.60
2022-09-27T11:45:13.445Z,5.82
2022-09-27T11:48:05.908Z,5.50
2022-09-27T11:50:51.035Z,7.55
2022-09-27T11:53:28.033Z,9.48
2022-09-27T11:56:07.854Z,12.32
2022-09-27T11:59:05.735Z,6.63
2022-09-27T12:01:54.760Z,6.88
2022-09-27T12:04:46.467Z,5.65
2022-09-27T12:07:42.521Z,8.75
2022-09-27T12:10:13.921Z,3.13
2022-09-27T12:12:45.284Z,12.68
2022-09-27T12:15:23.447Z,8.85
2022-09-27T12:17:56.764Z,10.35
2022-09-27T12:20:37.039Z,10.20
2022-09-27T12:23:15.404Z,8.60
2022-09-27T12:26:12.201Z,11.15
2022-09-27T12:28:55.079Z,9.50
2022-09-27T12:31:30.505Z,6.60
2022-09-27T12:34:02.347Z,10.55
2022-09-27T12:36:38.452Z,11.38
2022-09-27T12:39:15.798Z,9.67
2022-09-27T12:41:56.372Z,4.03
2022-09-27T12:44:42.110Z,3.95
2022-09-27T12:47:25.946Z,4.55
2022-09-27T12:50:11.376Z,5.82
2022-09-27T12:52:44.989Z,9.13
2022-09-27T12:56:03.813Z,7.85
2022-09-27T12:58:47.865Z,9.30
2022-09-27T13:02:04.778Z,18.55
2022-09-27T13:04:46.609Z,14.63
2022-09-27T13:07:48.908Z,10.05
2022-09-27T13:10:30.727Z,15.35
2022-09-27T13:13:05.835Z,6.72
2022-09-27T13:15:34.809Z,8.70
2022-09-27T13:18:06.751Z,10.68
2022-09-27T13:20:46.104Z,6.63
2022-09-27T13:23:38.957Z,11.80
2022-09-27T13:26:51.901Z,8.23
2022-09-27T13:29:29.181Z,7.97
2022-09-27T13:32:02.746Z,11.93
2022-09-27T13:34:54.092Z,9.15
2022-09-27T13:37:28.945Z,5.70
2022-09-27T13:40:21.983Z,7.43
2022-09-27T13:43:17.462Z,1.73
2022-09-27T13:46:07.644Z,3.00
2022-09-27T13:48:47.729Z,4.43
2022-09-27T13:51:26.044Z,5.22
2022-09-27T13:54:35.485Z,0.63
2022-09-27T13:57:06.463Z,3.47
2022-09-27T13:59:52.612Z,4.15
2022-09-27T14:02:49.839Z,2.97
2022-09-27T14:05:23.029Z,0.88
2022-09-27T14:07:51.979Z,1.27
2022-09-27T14:10:22.748Z,5.00
2022-09-27T14:12:52.954Z,1.13
2022-09-27T14:15:24.850Z,4.15
2022-09-27T14:17:54.436Z,1.98
2022-09-27T14:20:41.677Z,5.85
2022-09-27T14:23:23.787Z,1.45
2022-09-27T14:25:53.650Z,3.83
2022-09-27T14:28:21.421Z,3.85
2022-09-27T14:31:11.968Z,3.17
2022-09-27T14:34:11.694Z,1.05
2022-09-27T14:37:02.981Z,0.77
2022-09-27T14:39:37.621Z,2.15
2022-09-27T14:42:26.339Z,7.63
2022-09-27T14:45:02.978Z,2.65
2022-09-27T14:47:29.952Z,2.22
2022-09-27T14:50:28.722Z,2.55
2022-09-27T14:52:57.634Z,3.28
2022-09-27T14:55:28.373Z,1.85
2022-09-27T14:57:58.719Z,2.50
2022-09-27T15:00:32.147Z,1.33
2022-09-27T15:03:01.140Z,3.13
2022-09-27T15:05:32.059Z,3.75
2022-09-27T15:08:11.263Z,3.78
2022-09-27T15:10:39.077Z,6.72
2022-09-27T15:13:06.806Z,2.50
2022-09-27T15:15:36.243Z,5.80
2022-09-27T15:18:04.120Z,11.20
2022-09-27T15:20:35.759Z,3.72
2022-09-27T15:23:04.930Z,2.92
2022-09-27T15:25:36.669Z,7.97
2022-09-27T15:28:17.339Z,1.98
2022-09-27T15:30:55.868Z,3.30
2022-09-27T15:33:31.343Z,4.55
2022-09-27T15:36:08.267Z,2.03
2022-09-27T15:38:48.754Z,3.63
2022-09-27T15:41:17.858Z,2.75
2022-09-27T15:43:49.846Z,2.00
2022-09-27T15:46:23.019Z,3.35
2022-09-27T15:52:01.179Z,5.93
2022-09-27T15:54:30.296Z,3.28
2022-09-27T15:57:02.060Z,5.95
2022-09-27T15:59:31.892Z,5.82
2022-09-27T16:02:05.443Z,4.63
2022-09-27T16:04:34.366Z,5.90
2022-09-27T16:07:03.963Z,5.00
2022-09-27T16:09:30.978Z,2.30
2022-09-27T16:11:57.695Z,6.10
2022-09-27T16:14:24.460Z,6.13
2022-09-27T16:16:53.188Z,3.20
2022-09-27T16:19:20.529Z,4.07
2022-09-27T16:21:48.246Z,3.60
2022-09-27T16:24:15.795Z,1.55
2022-09-27T16:26:42.482Z,7.43
2022-09-27T16:29:11.865Z,3.17
2022-09-27T16:31:40.281Z,3.65
2022-09-27T16:34:09.757Z,3.85
2022-09-27T16:36:37.352Z,5.50
2022-09-27T16:39:06.846Z,2.13
2022-09-27T16:41:34.713Z,3.20
2022-09-27T16:44:13.878Z,3.05
2022-09-27T16:46:47.608Z,2.30
2022-09-27T16:49:32.962Z,6.13
2022-09-27T16:51:59.761Z,2.08
2022-09-27T16:54:28.985Z,2.97
2022-09-27T16:56:59.898Z,2.45
2022-09-27T16:59:27.044Z,1.20
2022-09-27T17:01:57.385Z,5.00
2022-09-27T17:04:28.508Z,2.13
2022-09-27T17:06:55.819Z,6.32
2022-09-27T17:09:22.636Z,6.90
2022-09-27T17:11:49.579Z,0.80
2022-09-27T17:14:16.998Z,6.03
2022-09-27T17:19:11.246Z,1.98
2022-09-27T17:21:38.296Z,1.92
2022-09-27T17:24:05.736Z,3.97
2022-09-27T17:26:32.788Z,3.42
2022-09-27T17:29:04.451Z,6.97
2022-09-27T17:31:34.560Z,5.63
2022-09-27T17:34:02.428Z,3.42
2022-09-27T17:36:33.481Z,4.07
2022-09-27T17:39:00.668Z,4.70
2022-09-27T17:41:28.909Z,8.45
2022-09-27T17:43:57.972Z,4.78
2022-09-27T17:46:30.929Z,6.15
2022-09-27T17:49:17.107Z,5.22
2022-09-27T17:51:47.590Z,4.20
2022-09-27T17:54:16.506Z,5.43
2022-09-27T17:56:43.622Z,6.97
2022-09-27T17:59:11.642Z,11.07
2022-09-27T18:01:39.454Z,4.22
2022-09-27T18:04:11.596Z,6.65
2022-09-27T18:06:43.833Z,9.27
2022-09-27T18:09:12.348Z,7.57
2022-09-27T18:11:39.748Z,4.45
2022-09-27T18:14:06.959Z,7.88
2022-09-27T18:16:38.765Z,12.27
2022-09-27T18:19:07.004Z,5.95
2022-09-27T18:21:34.656Z,9.95
2022-09-27T18:26:32.331Z,4.70
2022-09-27T18:29:05.450Z,3.42
2022-09-27T18:31:32.294Z,4.43
2022-09-27T18:33:59.026Z,3.42
2022-09-27T18:36:27.431Z,6.28
2022-09-27T18:38:56.539Z,5.38
2022-09-27T18:41:25.389Z,3.38
2022-09-27T18:43:57.821Z,7.55
2022-09-27T18:46:42.016Z,11.63
2022-09-27T18:49:10.790Z,4.53
2022-09-27T18:51:41.816Z,3.88
2022-09-27T18:54:16.272Z,2.92
2022-09-27T18:56:43.123Z,4.60
2022-09-27T18:59:10.448Z,5.68
2022-09-27T19:01:43.163Z,7.28
2022-09-27T19:04:11.319Z,5.70
2022-09-27T19:06:39.171Z,8.70
2022-09-27T19:09:07.173Z,7.63
2022-09-27T19:11:34.851Z,4.80
2022-09-27T19:16:29.744Z,8.70
2022-09-27T19:18:56.774Z,4.93
2022-09-27T19:21:26.035Z,5.97
2022-09-27T19:23:55.170Z,4.50
2022-09-27T19:26:23.974Z,2.80
2022-09-27T19:28:51.591Z,7.25
2022-09-27T19:31:25.213Z,4.18
2022-09-27T19:33:59.662Z,7.55
2022-09-27T19:36:27.813Z,3.50
2022-09-27T19:38:56.307Z,6.63
2022-09-27T19:41:23.091Z,6.63
2022-09-27T19:43:54.100Z,5.80
2022-09-27T19:46:22.136Z,5.57
2022-09-27T19:48:52.210Z,7.93
2022-09-27T19:51:28.646Z,11.80
2022-09-27T19:53:55.469Z,5.25
2022-09-27T19:56:23.173Z,9.67
2022-09-27T19:58:50.749Z,5.50
2022-09-27T20:01:22.489Z,6.60
2022-09-27T20:03:50.983Z,5.82
2022-09-27T20:06:20.306Z,5.45
2022-09-27T20:08:50.721Z,9.80
2022-09-27T20:11:19.745Z,5.40
2022-09-27T20:13:49.189Z,5.40
2022-09-27T20:16:27.140Z,8.43
2022-09-27T20:18:56.540Z,3.20
2022-09-27T20:21:28.930Z,7.25
2022-09-27T20:23:57.136Z,7.60
2022-09-27T20:26:26.189Z,8.70
2022-09-27T20:28:57.926Z,11.27
2022-09-27T20:31:28.809Z,7.25
2022-09-27T20:33:57.971Z,7.50
2022-09-27T20:36:32.969Z,4.68
2022-09-27T20:39:03.297Z,14.35
2022-09-27T20:41:32.932Z,3.28
2022-09-27T20:44:03.271Z,4.97
2022-09-27T20:46:30.878Z,4.38
2022-09-27T20:49:03.183Z,8.77
2022-09-27T20:51:34.270Z,6.97
2022-09-27T20:54:03.211Z,3.25
2022-09-27T20:56:32.385Z,13.13
2022-09-27T20:59:01.416Z,4.78
2022-09-27T21:01:29.347Z,5.05
2022-09-27T21:04:04.335Z,5.38
2022-09-27T21:06:32.395Z,7.07
2022-09-27T21:09:00.301Z,6.10
2022-09-27T21:11:27.634Z,8.02
2022-09-27T21:13:54.938Z,9.43
2022-09-27T21:16:23.547Z,7.60
2022-09-27T21:18:54.543Z,6.13
2022-09-27T21:21:23.148Z,5.88
2022-09-27T21:23:55.541Z,9.40
2022-09-27T21:26:23.139Z,7.57
2022-09-27T21:28:55.780Z,15.85
2022-09-27T21:31:25.414Z,8.10
2022-09-27T21:33:55.132Z,7.35
2022-09-27T21:36:23.382Z,6.65
2022-09-27T21:38:50.805Z,4.15
2022-09-27T21:41:18.377Z,4.97
2022-09-27T21:43:46.344Z,9.02
2022-09-27T21:46:17.824Z,6.82
2022-09-27T21:48:47.295Z,10.23
2022-09-27T21:51:21.380Z,7.63
2022-09-27T21:53:54.219Z,8.82
2022-09-27T21:56:22.622Z,12.85
2022-09-27T21:58:49.691Z,8.98
2022-09-27T22:01:24.934Z,10.18
2022-09-27T22:03:54.107Z,12.23
2022-09-27T22:06:23.053Z,10.48
2022-09-27T22:08:50.766Z,7.50
2022-09-27T22:13:46.003Z,8.80
2022-09-27T22:16:15.666Z,6.60
2022-09-27T22:18:47.582Z,14.82
2022-09-27T22:21:17.076Z,7.90
2022-09-27T22:23:45.407Z,8.88
2022-09-27T22:26:15.109Z,9.65
2022-09-27T22:28:43.066Z,5.90
2022-09-27T22:31:11.429Z,12.70
2022-09-27T22:33:38.566Z,9.43
2022-09-27T22:36:05.539Z,14.07
2022-09-27T22:38:32.257Z,20.92
2022-09-27T22:41:01.240Z,7.97
2022-09-27T22:43:29.240Z,10.75
2022-09-27T22:45:56.883Z,11.52
2022-09-27T22:48:23.605Z,5.55
2022-09-27T22:50:50.294Z,6.23
2022-09-27T22:53:17.040Z,13.65
2022-09-27T22:55:43.811Z,5.50
2022-09-27T22:58:10.485Z,12.40
2022-09-27T23:00:38.678Z,12.05
2022-09-27T23:03:05.409Z,4.63
2022-09-27T23:05:32.250Z,11.43
2022-09-27T23:07:58.883Z,8.17
2022-09-27T23:10:25.525Z,3.50
2022-09-27T23:12:55.326Z,8.77
2022-09-27T23:15:22.088Z,7.78
2022-09-27T23:17:51.787Z,6.82
2022-09-27T23:20:18.712Z,10.10
2022-09-27T23:22:45.735Z,13.10
2022-09-27T23:25:12.701Z,10.88
2022-09-27T23:27:42.046Z,4.65
2022-09-27T23:30:09.765Z,9.52
2022-09-27T23:35:03.339Z,7.68
2022-09-27T23:37:30.123Z,8.37
2022-09-27T23:39:57.413Z,5.47
2022-09-27T23:42:24.210Z,5.50
2022-09-27T23:44:52.539Z,5.43
2022-09-27T23:47:19.252Z,6.53
2022-09-27T23:49:45.952Z,4.13
2022-09-27T23:52:12.660Z,6.55
2022-09-27T23:54:39.352Z,8.00
2022-09-27T23:57:06.015Z,5.32
2022-09-27T23:59:32.807Z,7.17
